Time;durP1;ratioP1;P1;durP2;ratioP2;P2;SDS_P1;SDS_P2;PMS_P1;PMS_P2;Temp;Humidity;BMP_temperature;BMP_pressure;BME280_temperature;BME280_humidity;BME280_pressure;Samples;Min_cycle;Max_cycle;Signal;HPM_P1;HPM_P2
2020/12/25 00:02:24;;;;;;;17.35;11.68;;;;;;;1.76;100.00;98243.07;1767293;80;21031;-76
2020/12/25 00:04:51;;;;;;;13.30;8.60;;;;;;;1.78;100.00;98254.95;1767513;80;21022;-77
2020/12/25 00:07:19;;;;;;;10.90;7.12;;;;;;;1.80;100.00;98250.06;1767601;80;20926;-77
2020/12/25 00:09:46;;;;;;;12.03;6.90;;;;;;;1.81;100.00;98257.89;1765895;81;22524;-76
2020/12/25 00:12:14;;;;;;;10.82;6.83;;;;;;;1.80;100.00;98256.28;1796767;79;20957;-77
2020/12/25 00:14:41;;;;;;;17.30;11.08;;;;;;;1.79;100.00;98260.63;1796794;78;20933;-77
2020/12/25 00:17:09;;;;;;;15.40;10.32;;;;;;;1.79;100.00;98260.63;1796930;79;21534;-77
2020/12/25 00:19:37;;;;;;;16.77;10.15;;;;;;;1.77;100.00;98258.21;1765600;81;21559;-76
2020/12/25 00:22:04;;;;;;;20.85;13.48;;;;;;;1.77;100.00;98252.00;1796912;79;21192;-77
2020/12/25 00:24:31;;;;;;;20.20;12.03;;;;;;;1.76;100.00;98251.19;1765363;80;20949;-76
2020/12/25 00:26:59;;;;;;;27.52;16.77;;;;;;;1.76;100.00;98252.54;1793307;78;20929;-75
2020/12/25 00:29:26;;;;;;;25.25;17.40;;;;;;;1.79;100.00;98253.86;1761938;80;21127;-75
2020/12/25 00:31:54;;;;;;;19.32;12.10;;;;;;;1.82;100.00;98251.93;1793261;80;21401;-75
2020/12/25 00:34:23;;;;;;;18.23;11.63;;;;;;;1.84;100.00;98252.45;1761962;80;21220;-76
2020/12/25 00:36:50;;;;;;;14.70;9.20;;;;;;;1.87;100.00;98254.58;1793165;80;20933;-76
2020/12/25 00:39:18;;;;;;;16.07;9.98;;;;;;;1.89;100.00;98255.09;1793343;79;21012;-75
2020/12/25 00:41:48;;;;;;;17.40;9.38;;;;;;;1.92;100.00;98236.37;1793194;80;21001;-77
2020/12/25 00:44:16;;;;;;;19.90;10.48;;;;;;;1.96;100.00;98237.95;1793305;80;21008;-75
2020/12/25 00:46:44;;;;;;;19.02;10.50;;;;;;;1.99;100.00;98234.66;1754270;80;21990;-77
2020/12/25 00:49:12;;;;;;;21.10;12.35;;;;;;;2.03;100.00;98231.63;1758891;80;20946;-76
2020/12/25 00:51:40;;;;;;;20.68;11.80;;;;;;;2.07;100.00;98223.73;1751958;81;21009;-76
2020/12/25 00:54:07;;;;;;;22.50;11.80;;;;;;;2.11;100.00;98226.11;1748267;82;21152;-73
2020/12/25 00:56:46;;;;;;;26.77;14.47;;;;;;;2.15;100.00;98212.24;1747598;82;21558;-74
2020/12/25 00:59:16;;;;;;;29.18;13.55;;;;;;;2.20;100.00;98221.64;1755729;81;21033;-74
2020/12/25 01:01:44;;;;;;;21.93;11.83;;;;;;;2.23;100.00;98218.35;1759002;81;21627;-75
2020/12/25 01:04:13;;;;;;;28.73;12.13;;;;;;;2.27;100.00;98213.41;1758831;81;21065;-74
2020/12/25 01:06:42;;;;;;;27.35;11.00;;;;;;;2.31;100.00;98208.21;1739881;81;21472;-74
2020/12/25 01:09:10;;;;;;;25.80;12.05;;;;;;;2.32;100.00;98198.95;1759010;81;20930;-73
2020/12/25 01:11:40;;;;;;;31.73;13.30;;;;;;;2.37;100.00;98208.91;1759054;81;22213;-74
2020/12/25 01:14:08;;;;;;;26.07;13.20;;;;;;;2.38;100.00;98214.03;1758896;81;21121;-74
2020/12/25 01:16:36;;;;;;;29.12;13.22;;;;;;;2.42;100.00;98216.41;1758956;81;21536;-73
2020/12/25 01:19:04;;;;;;;30.85;13.40;;;;;;;2.43;100.00;98208.54;1759033;81;21041;-74
2020/12/25 01:21:32;;;;;;;30.70;14.10;;;;;;;2.45;100.00;98213.11;1758959;81;21496;-74
2020/12/25 01:23:59;;;;;;;31.57;14.33;;;;;;;2.49;100.00;98221.45;1759024;80;21402;-73
2020/12/25 01:26:28;;;;;;;32.38;14.23;;;;;;;2.49;100.00;98220.91;1762177;81;21021;-74
2020/12/25 01:29:03;;;;;;;30.52;14.87;;;;;;;2.51;100.00;98220.05;1764656;81;21108;-74
2020/12/25 01:31:31;;;;;;;35.20;15.18;;;;;;;2.52;100.00;98221.66;1764726;81;21057;-73
2020/12/25 01:33:59;;;;;;;37.42;17.40;;;;;;;2.53;100.00;98219.77;1764626;81;21052;-73
2020/12/25 01:36:26;;;;;;;43.55;17.85;;;;;;;2.54;100.00;98222.73;1764595;81;21370;-73
2020/12/25 01:38:54;;;;;;;40.35;17.52;;;;;;;2.54;100.00;98224.89;1764522;81;20954;-72
2020/12/25 01:41:21;;;;;;;45.88;18.92;;;;;;;2.56;100.00;98225.39;1764572;81;20883;-73
2020/12/25 01:43:49;;;;;;;46.18;19.82;;;;;;;2.57;100.00;98218.88;1764563;81;20974;-72
2020/12/25 01:46:16;;;;;;;43.17;19.12;;;;;;;2.61;100.00;98225.31;1764552;81;20989;-72
2020/12/25 01:48:43;;;;;;;48.70;22.05;;;;;;;2.63;100.00;98223.12;1764629;81;21363;-72
2020/12/25 01:51:14;;;;;;;52.90;23.18;;;;;;;2.65;100.00;98224.98;1764568;81;20934;-72
2020/12/25 01:53:41;;;;;;;68.47;28.65;;;;;;;2.70;100.00;98220.58;1764692;81;21473;-73
2020/12/25 01:56:10;;;;;;;72.47;28.52;;;;;;;2.75;100.00;98213.72;1764560;80;20942;-74
2020/12/25 01:58:39;;;;;;;72.32;29.00;;;;;;;2.79;100.00;98229.64;1764670;80;21124;-74
2020/12/25 02:01:07;;;;;;;87.25;34.88;;;;;;;2.82;100.00;98224.98;1764621;81;21350;-74
2020/12/25 02:03:36;;;;;;;92.40;35.15;;;;;;;2.84;100.00;98225.49;1764562;81;20990;-74
2020/12/25 02:06:04;;;;;;;88.40;35.30;;;;;;;2.87;100.00;98223.54;1747500;81;21464;-74
2020/12/25 02:08:31;;;;;;;91.92;33.90;;;;;;;2.90;100.00;98219.66;1764613;81;20906;-73
2020/12/25 02:10:59;;;;;;;83.90;34.33;;;;;;;2.94;100.00;98220.67;1764614;81;21497;-73
2020/12/25 02:13:29;;;;;;;107.83;40.92;;;;;;;2.97;100.00;98222.78;1764515;81;21349;-73
2020/12/25 02:15:55;;;;;;;101.90;38.42;;;;;;;3.01;100.00;98222.19;1747731;81;21160;-73
2020/12/25 02:18:23;;;;;;;102.82;37.63;;;;;;;3.04;100.00;98225.66;1764617;81;21075;-72
2020/12/25 02:20:50;;;;;;;93.90;37.42;;;;;;;3.07;100.00;98215.02;1764573;81;20934;-73
2020/12/25 02:23:17;;;;;;;95.50;36.20;;;;;;;3.11;100.00;98209.80;1764542;80;20986;-73
2020/12/25 02:25:45;;;;;;;106.03;40.05;;;;;;;3.15;100.00;98208.11;1763409;81;21430;-73
2020/12/25 02:28:12;;;;;;;100.55;40.08;;;;;;;3.18;100.00;98211.02;1758885;81;20931;-73
2020/12/25 02:30:40;;;;;;;109.92;40.67;;;;;;;3.21;100.00;98209.62;1758867;81;20922;-73
2020/12/25 02:33:08;;;;;;;115.65;41.95;;;;;;;3.22;100.00;98197.67;1758879;81;21009;-73
2020/12/25 02:35:37;;;;;;;119.00;42.05;;;;;;;3.23;100.00;98200.08;1758825;81;21128;-73
2020/12/25 02:38:04;;;;;;;128.18;49.08;;;;;;;3.27;100.00;98192.95;1758841;81;21361;-73
2020/12/25 02:40:32;;;;;;;110.63;43.02;;;;;;;3.27;100.00;98201.09;1758950;81;21457;-72
2020/12/25 02:42:59;;;;;;;123.58;46.10;;;;;;;3.28;100.00;98202.70;1758860;81;20922;-72
2020/12/25 02:45:27;;;;;;;135.60;49.65;;;;;;;3.28;100.00;98197.27;1758850;81;20962;-72
2020/12/25 02:47:54;;;;;;;121.17;43.45;;;;;;;3.31;100.00;98206.72;1758927;81;21033;-72
2020/12/25 02:50:22;;;;;;;110.25;44.25;;;;;;;3.31;100.00;98209.43;1758944;81;22081;-72
2020/12/25 02:52:50;;;;;;;126.53;47.62;;;;;;;3.34;100.00;98213.45;1758922;81;21069;-72
2020/12/25 02:55:17;;;;;;;121.75;48.50;;;;;;;3.37;100.00;98220.98;1758906;81;20998;-73
2020/12/25 02:57:45;;;;;;;132.15;51.98;;;;;;;3.38;100.00;98220.69;1758852;81;21021;-73
2020/12/25 03:00:13;;;;;;;141.80;54.88;;;;;;;3.40;100.00;98221.74;1758919;81;20918;-73
2020/12/25 03:02:41;;;;;;;138.22;54.00;;;;;;;3.41;100.00;98222.80;1758862;81;21356;-72
2020/12/25 03:05:08;;;;;;;158.78;55.38;;;;;;;3.44;100.00;98222.75;1758828;81;21018;-73
2020/12/25 03:07:36;;;;;;;137.12;51.33;;;;;;;3.46;100.00;98221.34;1758896;81;20986;-73
2020/12/25 03:10:03;;;;;;;139.60;50.60;;;;;;;3.49;100.00;98232.11;1758880;81;21045;-73
2020/12/25 03:12:31;;;;;;;137.05;51.60;;;;;;;3.52;100.00;98241.02;1759025;81;21049;-73
2020/12/25 03:14:58;;;;;;;137.20;52.00;;;;;;;3.54;100.00;98256.44;1759054;81;21187;-73
2020/12/25 03:17:25;;;;;;;155.07;54.00;;;;;;;3.57;100.00;98254.48;1758963;81;20983;-74
2020/12/25 03:19:53;;;;;;;142.15;54.55;;;;;;;3.58;100.00;98250.66;1759134;81;21485;-73
2020/12/25 03:22:20;;;;;;;147.72;51.05;;;;;;;3.59;100.00;98250.91;1759015;81;20935;-73
2020/12/25 03:24:47;;;;;;;141.32;52.73;;;;;;;3.58;100.00;98254.18;1759059;81;21571;-73
2020/12/25 03:27:15;;;;;;;136.00;51.58;;;;;;;3.59;100.00;98256.34;1762611;81;21375;-73
2020/12/25 03:29:42;;;;;;;135.28;49.03;;;;;;;3.59;100.00;98243.58;1764641;81;21539;-74
2020/12/25 03:32:10;;;;;;;137.95;53.25;;;;;;;3.59;100.00;98240.86;1764679;81;20946;-73
2020/12/25 03:34:37;;;;;;;123.18;47.75;;;;;;;3.58;100.00;98240.61;1764575;81;21009;-73
2020/12/25 03:37:05;;;;;;;131.32;49.45;;;;;;;3.58;100.00;98235.19;1764662;81;21175;-73
2020/12/25 03:39:32;;;;;;;127.35;49.90;;;;;;;3.59;100.00;98231.92;1764699;81;21252;-73
2020/12/25 03:42:00;;;;;;;115.15;48.60;;;;;;;3.59;100.00;98234.63;1764737;81;21504;-72
2020/12/25 03:44:27;;;;;;;123.58;49.93;;;;;;;3.59;100.00;98237.34;1764653;81;20977;-72
2020/12/25 03:46:55;;;;;;;108.32;46.25;;;;;;;3.59;100.00;98241.41;1764636;81;21583;-72
2020/12/25 03:49:22;;;;;;;120.22;46.50;;;;;;;3.59;100.00;98234.08;1764801;81;21472;-72
2020/12/25 03:51:49;;;;;;;110.63;43.52;;;;;;;3.61;100.00;98241.92;1764696;80;21449;-73
2020/12/25 03:54:17;;;;;;;116.88;48.65;;;;;;;3.61;100.00;98244.63;1764635;81;21112;-73
2020/12/25 03:56:44;;;;;;;108.03;45.43;;;;;;;3.61;100.00;98240.56;1764724;81;21615;-74
2020/12/25 03:59:12;;;;;;;110.08;47.53;;;;;;;3.60;100.00;98234.33;1764648;80;21107;-74
2020/12/25 04:01:39;;;;;;;101.85;46.05;;;;;;;3.61;100.00;98229.70;1764668;81;21065;-73
2020/12/25 04:04:07;;;;;;;103.80;43.30;;;;;;;3.61;100.00;98231.06;1764704;81;21185;-73
2020/12/25 04:06:35;;;;;;;91.95;41.80;;;;;;;3.61;100.00;98243.27;1764542;81;21033;-73
2020/12/25 04:09:02;;;;;;;94.83;41.65;;;;;;;3.60;100.00;98230.81;1764666;81;20950;-73
2020/12/25 04:11:30;;;;;;;97.10;39.40;;;;;;;3.60;100.00;98228.09;1764590;80;20934;-74
2020/12/25 04:13:59;;;;;;;95.53;41.10;;;;;;;3.60;100.00;98236.23;1764641;81;20942;-73
2020/12/25 04:16:27;;;;;;;88.33;37.15;;;;;;;3.61;100.00;98233.78;1764749;81;22238;-73
2020/12/25 04:18:54;;;;;;;103.22;46.28;;;;;;;3.62;100.00;98235.38;1764600;81;20946;-74
2020/12/25 04:21:24;;;;;;;103.15;41.23;;;;;;;3.61;100.00;98240.01;1764559;81;21756;-74
2020/12/25 04:23:52;;;;;;;87.72;40.67;;;;;;;3.62;100.00;98224.53;1761468;80;20899;-73
2020/12/25 04:26:19;;;;;;;83.40;38.23;;;;;;;3.62;100.00;98231.31;1764449;80;21345;-76
2020/12/25 04:28:47;;;;;;;80.95;36.38;;;;;;;3.61;100.00;98241.36;1764635;80;21555;-75
2020/12/25 04:31:15;;;;;;;85.75;36.77;;;;;;;3.64;100.00;98252.17;1764067;81;21150;-75
2020/12/25 04:33:42;;;;;;;92.30;40.78;;;;;;;3.67;100.00;98251.56;1764696;81;21457;-75
2020/12/25 04:36:12;;;;;;;102.05;47.60;;;;;;;3.67;100.00;98251.56;1762411;80;21056;-74
2020/12/25 04:38:40;;;;;;;80.32;36.95;;;;;;;3.67;100.00;98246.14;1763628;81;21587;-75
2020/12/25 04:41:08;;;;;;;75.65;34.08;;;;;;;3.67;100.00;98243.42;1763922;81;21365;-75
2020/12/25 04:43:40;;;;;;;70.03;33.50;;;;;;;3.67;100.00;98241.27;1763918;81;21213;-73
2020/12/25 04:46:08;;;;;;;72.08;33.92;;;;;;;3.64;100.00;98259.76;1764189;81;21009;-74
2020/12/25 04:48:36;;;;;;;73.47;32.98;;;;;;;3.62;100.00;98255.73;1764301;80;20986;-77
2020/12/25 04:51:04;;;;;;;62.17;29.15;;;;;;;3.59;100.00;98253.63;1764291;81;21167;-76
2020/12/25 04:53:32;;;;;;;76.55;34.67;;;;;;;3.53;100.00;98242.62;1764522;81;21352;-74
2020/12/25 04:55:59;;;;;;;78.42;34.55;;;;;;;3.45;100.00;98256.36;1747308;81;20942;-74
2020/12/25 04:58:27;;;;;;;87.97;37.73;;;;;;;3.39;100.00;98271.13;1764631;81;21002;-73
2020/12/25 05:01:07;;;;;;;74.87;34.45;;;;;;;3.31;100.00;98278.59;1764615;81;20902;-75
2020/12/25 05:03:36;;;;;;;76.72;34.30;;;;;;;3.25;100.00;98286.02;1764623;80;20989;-74
2020/12/25 05:06:16;;;;;;;75.78;33.08;;;;;;;3.18;100.00;98280.17;1764698;81;22339;-75
2020/12/25 05:08:46;;;;;;;72.05;32.28;;;;;;;3.13;100.00;98278.91;1764700;81;21501;-75
2020/12/25 05:11:19;;;;;;;80.42;34.78;;;;;;;3.11;100.00;98285.18;1764634;81;20954;-74
2020/12/25 05:13:53;;;;;;;80.50;34.55;;;;;;;3.12;100.00;98287.34;1764719;81;21539;-75
2020/12/25 05:16:22;;;;;;;72.03;31.93;;;;;;;3.11;100.00;98277.59;1764680;81;20906;-75
2020/12/25 05:18:51;;;;;;;79.22;35.65;;;;;;;3.10;100.00;98274.08;1764691;80;21517;-75
2020/12/25 05:21:21;;;;;;;77.58;34.35;;;;;;;3.09;100.00;98268.95;1764570;81;20998;-75
2020/12/25 05:23:49;;;;;;;75.35;33.45;;;;;;;3.07;100.00;98265.19;1764592;81;20978;-75
2020/12/25 05:26:18;;;;;;;71.97;33.85;;;;;;;3.07;100.00;98273.87;1764650;81;21543;-74
2020/12/25 05:28:50;;;;;;;76.67;32.48;;;;;;;3.04;100.00;98274.46;1725946;81;21029;-72
2020/12/25 05:31:18;;;;;;;81.90;34.43;;;;;;;3.01;100.00;98269.08;1726163;83;22260;-72
2020/12/25 05:33:50;;;;;;;81.92;34.35;;;;;;;2.98;100.00;98277.26;1725813;81;21037;-72
2020/12/25 05:36:18;;;;;;;78.67;34.63;;;;;;;2.97;100.00;98281.62;1725938;83;21132;-72
2020/12/25 05:38:49;;;;;;;84.22;35.92;;;;;;;2.97;100.00;98293.27;1725844;81;21009;-72
2020/12/25 05:41:17;;;;;;;83.05;34.23;;;;;;;2.96;100.00;98296.28;1726160;83;21128;-73
2020/12/25 05:43:53;;;;;;;80.62;34.95;;;;;;;2.95;100.00;98287.89;1725443;81;21191;-76
2020/12/25 05:46:21;;;;;;;69.42;29.85;;;;;;;2.94;100.00;98303.34;1725663;83;21061;-74
2020/12/25 05:48:51;;;;;;;74.85;33.58;;;;;;;2.95;100.00;98308.22;1725727;81;21116;-76
2020/12/25 05:51:21;;;;;;;71.55;32.55;;;;;;;2.93;100.00;98308.52;1724089;83;21519;-75
2020/12/25 05:53:49;;;;;;;68.85;32.33;;;;;;;2.93;100.00;98309.87;1725807;81;21112;-76
2020/12/25 05:56:17;;;;;;;70.12;32.67;;;;;;;2.95;100.00;98310.38;1725856;83;21375;-75
2020/12/25 05:58:45;;;;;;;74.15;33.53;;;;;;;2.99;100.00;98316.02;1699061;83;21061;-75
2020/12/25 06:01:13;;;;;;;66.35;32.13;;;;;;;2.99;100.00;98320.89;1725987;83;21069;-76
2020/12/25 06:03:40;;;;;;;72.80;33.23;;;;;;;3.02;100.00;98334.41;1699368;83;20950;-77
2020/12/25 06:06:14;;;;;;;79.25;34.35;;;;;;;3.04;100.00;98324.06;1725748;81;20989;-74
2020/12/25 06:08:58;;;;;;;84.05;37.30;;;;;;;3.06;100.00;98335.42;1734112;81;21152;-74
2020/12/25 06:11:30;;;;;;;81.42;34.30;;;;;;;3.07;100.00;98342.45;1706885;84;21605;-73
2020/12/25 06:13:58;;;;;;;;;;;;;;;3.10;100.00;98346.48;1710105;84;21578;-73
2020/12/25 06:16:27;;;;;;;94.87;43.52;;;;;;;3.12;100.00;98351.06;1709203;84;20274;-71
2020/12/25 06:19:05;;;;;;;87.82;39.90;;;;;;;3.12;100.00;98352.42;1709171;84;21084;-72
2020/12/25 06:21:44;;;;;;;82.22;36.13;;;;;;;3.14;100.00;98344.24;1709239;84;21494;-72
2020/12/25 06:24:15;;;;;;;68.57;34.10;;;;;;;3.15;100.00;98360.77;1709164;84;20973;-72
2020/12/25 06:26:43;;;;;;;69.72;31.40;;;;;;;3.15;100.00;98358.05;1710302;81;21499;-71
2020/12/25 06:29:16;;;;;;;78.20;39.88;;;;;;;3.16;100.00;98355.59;1751913;82;21160;-71
2020/12/25 06:31:46;;;;;;;90.45;42.10;;;;;;;3.17;100.00;98356.41;1760313;81;21072;-72
2020/12/25 06:34:13;;;;;;;92.62;45.80;;;;;;;3.17;100.00;98368.05;1733049;81;21058;-72
2020/12/25 06:36:46;;;;;;;87.42;41.42;;;;;;;3.18;100.00;98371.02;1760178;81;20901;-71
2020/12/25 06:39:15;;;;;;;;;;;;;;;3.21;100.00;98375.86;1762341;81;21520;-71
2020/12/25 06:41:43;;;;;;;73.55;35.05;;;;;;;3.23;100.00;98364.16;1760133;81;20493;-72
2020/12/25 06:44:17;;;;;;;76.45;36.45;;;;;;;3.25;100.00;98364.67;1760194;81;20937;-72
2020/12/25 06:46:48;;;;;;;72.80;35.60;;;;;;;3.27;100.00;98369.25;1759921;80;22337;-71
2020/12/25 06:49:16;;;;;;;74.95;33.80;;;;;;;3.30;100.00;98370.02;1760321;81;21048;-71
2020/12/25 06:51:45;;;;;;;65.40;33.18;;;;;;;3.34;100.00;98370.23;1760365;81;20918;-73
2020/12/25 06:54:22;;;;;;;67.75;33.30;;;;;;;3.36;100.00;98372.64;1760463;81;21123;-79
2020/12/25 06:56:53;;;;;;;56.83;27.93;;;;;;;3.41;100.00;98373.91;1760459;81;21044;-77
2020/12/25 06:59:22;;;;;;;58.83;28.75;;;;;;;3.43;100.00;98378.49;1760329;81;21216;-75
2020/12/25 07:01:52;;;;;;;62.65;29.57;;;;;;;3.44;100.00;98386.89;1760386;81;20933;-75
2020/12/25 07:04:30;;;;;;;61.25;31.62;;;;;;;3.44;100.00;98384.98;1760445;81;21001;-75
2020/12/25 07:07:01;;;;;;;149.30;55.12;;;;;;;3.44;100.00;98386.34;1760332;81;21077;-82
2020/12/25 07:09:46;;;;;;;85.57;40.80;;;;;;;3.45;100.00;98389.30;1760442;81;20996;-77
2020/12/25 07:12:20;;;;;;;78.52;36.70;;;;;;;3.46;100.00;98408.55;1760417;81;21496;-78
2020/12/25 07:14:48;;;;;;;77.75;37.98;;;;;;;3.46;100.00;98405.84;1760489;81;20973;-81
2020/12/25 07:17:19;;;;;;;81.63;41.25;;;;;;;3.48;100.00;98406.86;1760356;81;20953;-78
2020/12/25 07:19:46;;;;;;;80.22;40.20;;;;;;;3.50;100.00;98403.30;1760374;81;20985;-86
2020/12/25 07:22:17;;;;;;;63.87;33.67;;;;;;;3.51;100.00;98417.13;1760451;81;21056;-79
2020/12/25 07:24:51;;;;;;;61.00;30.05;;;;;;;3.51;100.00;98420.64;1757664;81;21385;-72
2020/12/25 07:27:36;;;;;;;46.53;25.55;;;;;;;3.53;100.00;98421.70;1758209;80;21085;-76
2020/12/25 07:31:00;;;;;;;44.10;25.00;;;;;;;3.57;100.00;98422.73;1752155;81;20907;-73
2020/12/25 07:36:50;;;;;;;37.95;23.27;;;;;;;3.77;100.00;98425.09;1873595;76;27741;-67
2020/12/25 07:39:18;;;;;;;37.88;21.27;;;;;;;3.82;100.00;98433.16;1817833;78;21128;-74
2020/12/25 07:41:47;;;;;;;38.95;21.85;;;;;;;3.89;100.00;98443.07;1746340;80;21372;-72
2020/12/25 07:44:20;;;;;;;39.67;21.12;;;;;;;3.95;100.00;98441.07;1759587;81;21005;-72
2020/12/25 07:46:48;;;;;;;39.90;21.10;;;;;;;3.96;100.00;98433.98;1759803;81;21023;-72
2020/12/25 07:49:15;;;;;;;45.20;24.85;;;;;;;3.99;100.00;98433.94;1726038;83;20934;-75
2020/12/25 07:51:43;;;;;;;56.92;32.03;;;;;;;3.99;100.00;98436.66;1749714;82;20930;-76
2020/12/25 07:54:10;;;;;;;42.70;24.43;;;;;;;4.01;100.00;98435.00;1749660;81;21878;-77
2020/12/25 07:56:40;;;;;;;44.20;22.15;;;;;;;4.02;100.00;98433.89;1749374;82;21062;-77
2020/12/25 07:59:09;;;;;;;38.05;22.98;;;;;;;4.03;100.00;98439.02;1749695;82;20982;-72
2020/12/25 08:01:36;;;;;;;43.10;25.30;;;;;;;4.03;100.00;98445.01;1749608;82;21057;-74
2020/12/25 08:04:04;;;;;;;46.48;27.73;;;;;;;4.02;100.00;98448.83;1749645;81;20938;-70
2020/12/25 08:06:34;;;;;;;65.30;36.98;;;;;;;4.03;100.00;98452.60;1749661;82;21783;-75
2020/12/25 08:09:09;;;;;;;59.60;36.55;;;;;;;4.05;100.00;98453.63;1749576;82;20942;-69
2020/12/25 08:11:38;;;;;;;41.25;23.83;;;;;;;4.06;100.00;98455.24;1751581;80;21025;-69
2020/12/25 08:14:08;;;;;;;41.55;24.77;;;;;;;4.09;100.00;98459.52;1773628;80;21485;-70
2020/12/25 08:16:39;;;;;;;46.92;24.72;;;;;;;4.12;100.00;98455.41;1751676;81;21590;-69
2020/12/25 08:19:06;;;;;;;39.58;22.60;;;;;;;4.13;100.00;98458.38;1780679;79;21384;-74
2020/12/25 08:21:39;;;;;;;40.03;22.45;;;;;;;4.15;100.00;98466.48;1790507;80;20939;-73
2020/12/25 08:24:08;;;;;;;37.93;21.75;;;;;;;4.19;100.00;98470.76;1785748;79;21631;-74
2020/12/25 08:26:37;;;;;;;41.65;24.12;;;;;;;4.21;100.00;98467.99;1804219;79;20886;-70
2020/12/25 08:29:05;;;;;;;39.20;22.50;;;;;;;4.24;100.00;98471.47;1796773;79;20908;-72
2020/12/25 08:31:36;;;;;;;37.88;22.32;;;;;;;4.27;100.00;98472.23;1771768;81;21383;-71
2020/12/25 08:34:04;;;;;;;46.68;25.95;;;;;;;4.29;100.00;98470.56;1780477;79;22195;-72
2020/12/25 08:36:31;;;;;;;39.05;22.82;;;;;;;4.35;100.00;98476.71;1764035;80;20984;-73
2020/12/25 08:39:01;;;;;;;45.67;26.52;;;;;;;4.39;100.00;98474.45;1733521;81;21188;-77
2020/12/25 08:41:29;;;;;;;40.95;25.65;;;;;;;4.44;100.00;98477.07;1752938;81;21155;-69
2020/12/25 08:44:12;;;;;;;38.85;22.22;;;;;;;4.51;100.00;98479.39;1753001;81;21195;-71
2020/12/25 08:46:41;;;;;;;37.08;21.93;;;;;;;4.52;100.00;98474.20;1751960;81;21195;-73
2020/12/25 08:49:09;;;;;;;44.75;25.75;;;;;;;4.51;100.00;98473.95;1752843;81;21156;-72
2020/12/25 08:51:38;;;;;;;36.20;21.05;;;;;;;4.47;100.00;98479.19;1753706;81;21572;-71
2020/12/25 08:54:07;;;;;;;33.92;20.88;;;;;;;4.46;100.00;98487.09;1753768;81;21591;-70
2020/12/25 08:56:35;;;;;;;35.00;21.52;;;;;;;4.42;100.00;98482.00;1753566;81;21388;-76
2020/12/25 08:59:06;;;;;;;33.13;20.62;;;;;;;4.37;100.00;98487.53;1753494;81;20954;-70
2020/12/25 09:01:37;;;;;;;34.92;19.67;;;;;;;4.32;100.00;98482.20;1753421;81;21520;-70
2020/12/25 09:04:13;;;;;;;34.83;20.85;;;;;;;4.28;100.00;98490.14;1753744;81;20935;-70
2020/12/25 09:06:42;;;;;;;39.00;23.57;;;;;;;4.27;100.00;98486.36;1753690;81;21097;-70
2020/12/25 09:09:11;;;;;;;40.05;23.55;;;;;;;4.24;100.00;98485.61;1750397;81;21210;-70
2020/12/25 09:11:39;;;;;;;36.20;22.22;;;;;;;4.24;100.00;98486.96;1753637;81;21635;-68
2020/12/25 09:14:06;;;;;;;34.13;20.77;;;;;;;4.23;100.00;98502.45;1753692;81;20923;-69
2020/12/25 09:16:33;;;;;;;40.50;23.35;;;;;;;4.22;100.00;98490.53;1753595;81;20931;-69
2020/12/25 09:19:01;;;;;;;37.35;22.00;;;;;;;4.24;100.00;98493.75;1753650;81;20994;-70
2020/12/25 09:21:29;;;;;;;36.65;20.95;;;;;;;4.27;100.00;98487.72;1753617;81;21553;-70
2020/12/25 09:23:56;;;;;;;38.48;21.97;;;;;;;4.30;100.00;98482.49;1753507;81;20951;-70
2020/12/25 09:26:24;;;;;;;31.75;20.48;;;;;;;4.33;100.00;98484.36;1753707;81;21481;-71
2020/12/25 09:28:51;;;;;;;34.78;21.52;;;;;;;4.36;100.00;98471.53;1753663;81;21074;-70
2020/12/25 09:31:19;;;;;;;36.88;22.25;;;;;;;4.42;100.00;98470.33;1753669;81;20939;-69
2020/12/25 09:33:46;;;;;;;33.33;20.25;;;;;;;4.45;100.00;98461.02;1753534;81;21424;-71
2020/12/25 09:36:13;;;;;;;33.78;18.60;;;;;;;4.50;100.00;98462.83;1771828;80;20906;-70
2020/12/25 09:38:44;;;;;;;36.93;21.45;;;;;;;4.49;100.00;98462.03;1762363;80;21009;-71
2020/12/25 09:41:13;;;;;;;35.20;23.30;;;;;;;4.48;100.00;98457.70;1760645;80;21200;-71
2020/12/25 09:43:42;;;;;;;31.00;18.05;;;;;;;4.49;100.00;98456.59;1790229;80;20931;-70
2020/12/25 09:46:09;;;;;;;29.65;18.55;;;;;;;4.49;100.00;98463.94;1790204;80;21419;-70
2020/12/25 09:48:37;;;;;;;34.00;19.62;;;;;;;4.46;100.00;98458.55;1790165;80;21047;-70
2020/12/25 09:51:05;;;;;;;36.17;21.33;;;;;;;4.46;100.00;98455.03;1789877;80;21494;-70
2020/12/25 09:53:32;;;;;;;32.90;19.25;;;;;;;4.45;100.00;98461.02;1761925;81;20960;-69
2020/12/25 09:56:00;;;;;;;30.27;19.25;;;;;;;4.46;100.00;98454.48;1761962;81;21022;-70
2020/12/25 09:58:27;;;;;;;34.55;22.50;;;;;;;4.57;100.00;98440.13;1761973;81;21395;-70
2020/12/25 10:00:54;;;;;;;39.33;24.45;;;;;;;4.80;100.00;98445.06;1761852;81;20959;-70
2020/12/25 10:03:24;;;;;;;41.02;25.43;;;;;;;5.10;100.00;98438.16;1762017;81;21470;-69
2020/12/25 10:05:51;;;;;;;39.35;24.40;;;;;;;5.84;100.00;98446.13;1761992;81;21569;-70
2020/12/25 10:08:19;;;;;;;38.58;25.32;;;;;;;6.26;100.00;98452.95;1762055;81;21557;-70
2020/12/25 10:10:46;;;;;;;42.45;27.42;;;;;;;6.26;100.00;98452.95;1761959;81;21046;-70
2020/12/25 10:13:14;;;;;;;43.68;26.02;;;;;;;6.73;100.00;98458.72;1776643;80;21506;-70
2020/12/25 10:15:42;;;;;;;32.50;21.82;;;;;;;7.07;100.00;98462.06;1793202;80;20948;-70
2020/12/25 10:18:09;;;;;;;39.75;25.15;;;;;;;7.32;100.00;98458.31;1793194;80;20948;-70
2020/12/25 10:20:37;;;;;;;38.90;26.12;;;;;;;7.58;100.00;98459.90;1793279;80;20960;-70
2020/12/25 10:23:04;;;;;;;37.20;24.90;;;;;;;7.98;100.00;98462.99;1793345;80;22263;-70
2020/12/25 10:25:31;;;;;;;35.05;22.35;;;;;;;8.38;100.00;98456.13;1793223;80;21081;-69
2020/12/25 10:27:59;;;;;;;34.55;23.27;;;;;;;8.69;100.00;98450.91;1789544;80;21545;-70
2020/12/25 10:30:26;;;;;;;30.27;19.85;;;;;;;9.02;100.00;98453.22;1762130;81;20955;-70
2020/12/25 10:32:54;;;;;;;25.90;17.00;;;;;;;9.21;99.44;98459.05;1761940;81;21228;-70
2020/12/25 10:35:21;;;;;;;21.85;13.43;;;;;;;9.02;96.28;98465.53;1761791;81;21401;-71
2020/12/25 10:37:49;;;;;;;21.17;13.48;;;;;;;8.63;94.39;98466.73;1765313;81;21026;-70
2020/12/25 10:40:18;;;;;;;17.35;12.15;;;;;;;8.13;93.06;98469.28;1763371;81;21022;-70
2020/12/25 10:42:48;;;;;;;17.98;12.78;;;;;;;7.67;92.87;98471.38;1778585;79;21011;-70
2020/12/25 10:45:16;;;;;;;16.85;11.68;;;;;;;7.18;92.42;98462.00;1789772;79;20923;-69
2020/12/25 10:47:43;;;;;;;19.32;13.32;;;;;;;6.73;92.21;98469.63;1765385;81;21380;-70
2020/12/25 10:50:10;;;;;;;20.27;15.13;;;;;;;6.40;93.51;98473.27;1767608;81;21587;-71
2020/12/25 10:52:38;;;;;;;23.95;15.03;;;;;;;6.18;94.37;98476.08;1767655;81;21160;-70
2020/12/25 10:55:06;;;;;;;27.80;17.00;;;;;;;5.94;94.73;98465.52;1797514;79;20934;-71
2020/12/25 10:57:33;;;;;;;30.30;16.15;;;;;;;5.78;95.53;98482.77;1764749;81;21158;-71
2020/12/25 11:00:02;;;;;;;32.48;20.35;;;;;;;5.69;96.35;98491.46;1783918;79;21827;-70
2020/12/25 11:02:29;;;;;;;38.17;21.15;;;;;;;5.63;97.04;98489.97;1799002;79;21133;-71
2020/12/25 11:04:57;;;;;;;33.92;22.17;;;;;;;5.63;97.82;98488.61;1799019;79;21181;-70
2020/12/25 11:07:25;;;;;;;33.85;20.97;;;;;;;5.67;98.62;98475.19;1788627;80;20942;-70
2020/12/25 11:09:54;;;;;;;35.25;22.00;;;;;;;5.84;99.47;98476.64;1773820;80;21083;-69
2020/12/25 11:12:22;;;;;;;31.48;20.45;;;;;;;5.95;99.45;98478.83;1799054;79;21840;-70
2020/12/25 11:14:49;;;;;;;35.15;20.35;;;;;;;5.95;99.09;98480.75;1798210;79;21516;-70
2020/12/25 11:17:17;;;;;;;31.85;19.00;;;;;;;6.12;99.39;98507.30;1798823;79;21052;-71
2020/12/25 11:19:44;;;;;;;30.35;20.00;;;;;;;6.12;99.39;98507.30;1798925;79;20914;-72
2020/12/25 11:22:14;;;;;;;28.77;17.40;;;;;;;6.18;99.19;98501.97;1798965;79;20925;-72
2020/12/25 11:24:42;;;;;;;34.27;17.15;;;;;;;6.11;98.28;98502.41;1784146;79;21363;-76
2020/12/25 11:27:10;;;;;;;27.55;15.58;;;;;;;5.94;96.95;98503.66;1773541;79;21166;-74
2020/12/25 11:29:38;;;;;;;32.05;20.37;;;;;;;5.76;96.91;98504.09;1767442;81;21001;-72